createdAt,value
2022-11-25T00:03:01.664Z,78.20
2022-11-25T00:13:07.374Z,92.20
2022-11-25T00:23:13.097Z,90.70
2022-11-25T00:33:18.650Z,88.00
2022-11-25T00:43:41.824Z,87.40
2022-11-25T00:53:47.502Z,97.80
2022-11-25T01:03:54.015Z,96.00
2022-11-25T01:14:01.408Z,84.50
2022-11-25T01:24:09.000Z,97.00
2022-11-25T01:34:17.669Z,91.30
2022-11-25T01:44:25.794Z,82.80
2022-11-25T01:54:36.393Z,86.50
2022-11-25T02:04:44.262Z,82.20
2022-11-25T02:14:52.150Z,84.40
2022-11-25T02:25:03.562Z,91.20
2022-11-25T02:35:31.389Z,71.80
2022-11-25T02:45:44.555Z,94.10
2022-11-25T02:55:50.764Z,83.80
2022-11-25T03:05:56.383Z,79.00
2022-11-25T03:16:02.238Z,90.90
2022-11-25T03:26:09.489Z,70.40
2022-11-25T03:36:15.037Z,83.40
2022-11-25T03:46:20.658Z,82.20
2022-11-25T03:56:27.110Z,93.80
2022-11-25T04:06:33.080Z,78.60
2022-11-25T04:16:38.734Z,86.10
2022-11-25T04:26:44.519Z,83.90
2022-11-25T04:36:50.151Z,70.90
2022-11-25T04:46:55.866Z,84.60
2022-11-25T04:57:01.448Z,90.60
2022-11-25T05:07:07.015Z,74.90
2022-11-25T05:17:16.536Z,71.50
2022-11-25T05:27:22.650Z,77.10
2022-11-25T05:37:28.267Z,70.40
2022-11-25T05:47:34.342Z,68.20
2022-11-25T05:57:39.941Z,66.30
2022-11-25T06:07:45.992Z,75.90
2022-11-25T06:17:51.676Z,52.00
2022-11-25T06:28:12.536Z,75.30
2022-11-25T06:38:19.058Z,84.00
2022-11-25T06:48:24.625Z,67.90
2022-11-25T06:58:35.924Z,64.40
2022-11-25T07:08:42.656Z,64.40
2022-11-25T07:18:48.309Z,75.70
2022-11-25T07:28:58.848Z,48.70
2022-11-25T07:39:07.491Z,63.60
2022-11-25T07:49:15.405Z,72.70
2022-11-25T07:59:22.869Z,64.90
2022-11-25T08:09:28.580Z,66.80
2022-11-25T08:19:34.657Z,75.90
2022-11-25T08:29:40.937Z,85.20
2022-11-25T08:39:54.501Z,79.70
2022-11-25T08:50:00.484Z,97.60
2022-11-25T09:00:10.010Z,82.70
2022-11-25T09:10:18.794Z,73.30
2022-11-25T09:20:24.757Z,80.40
2022-11-25T09:30:30.575Z,68.90
2022-11-25T09:40:43.368Z,74.60
2022-11-25T09:51:01.618Z,65.40
2022-11-25T10:01:15.016Z,68.00
2022-11-25T10:11:36.091Z,65.00
2022-11-25T10:21:42.584Z,61.50
2022-11-25T10:31:49.114Z,61.70
2022-11-25T10:41:59.454Z,65.40
2022-11-25T10:52:12.248Z,65.10
2022-11-25T11:02:26.064Z,61.80
2022-11-25T11:12:32.175Z,61.20
2022-11-25T11:22:46.853Z,63.90
2022-11-25T11:33:01.661Z,59.60
2022-11-25T11:43:25.108Z,66.60
2022-11-25T11:53:38.122Z,64.50
2022-11-25T12:03:56.472Z,64.40
2022-11-25T12:14:07.914Z,54.70
2022-11-25T12:24:20.929Z,55.70
2022-11-25T12:34:35.656Z,53.90
2022-11-25T12:44:51.307Z,62.20
2022-11-25T12:55:09.653Z,61.90
2022-11-25T13:05:41.019Z,63.70
2022-11-25T13:15:49.152Z,58.70
2022-11-25T13:26:16.199Z,63.00
2022-11-25T13:36:23.545Z,58.80
2022-11-25T13:56:41.467Z,55.30
2022-11-25T14:07:20.105Z,64.40
2022-11-25T14:17:48.325Z,71.80
2022-11-25T14:28:04.592Z,87.60
2022-11-25T14:38:17.226Z,85.10
2022-11-25T14:48:27.290Z,89.80
2022-11-25T14:58:33.334Z,90.20
2022-11-25T15:08:43.838Z,85.40
2022-11-25T15:18:52.782Z,75.60
2022-11-25T15:29:00.198Z,80.30
2022-11-25T15:39:25.145Z,65.80
2022-11-25T15:49:30.770Z,71.50
2022-11-25T15:59:47.564Z,64.90
2022-11-25T16:09:54.206Z,58.40
2022-11-25T16:19:59.831Z,68.00
2022-11-25T16:30:20.399Z,76.80
2022-11-25T16:40:27.841Z,82.40
2022-11-25T16:50:33.461Z,76.60
2022-11-25T17:00:39.054Z,79.60
2022-11-25T17:10:46.079Z,72.90
2022-11-25T17:30:56.115Z,66.80
2022-11-25T17:41:01.671Z,64.30
2022-11-25T17:51:07.870Z,77.00
2022-11-25T18:01:14.290Z,86.20
2022-11-25T18:11:22.990Z,85.60
2022-11-25T18:21:28.937Z,68.40
2022-11-25T18:31:34.511Z,94.60
2022-11-25T18:41:41.655Z,99.00
2022-11-25T18:51:47.699Z,107.70
2022-11-25T19:01:53.312Z,97.80
2022-11-25T19:11:59.126Z,113.10
2022-11-25T19:22:04.936Z,118.10
2022-11-25T19:32:20.273Z,125.10
2022-11-25T19:42:28.303Z,140.70
2022-11-25T19:52:37.802Z,120.40
2022-11-25T20:02:44.248Z,139.10
2022-11-25T20:12:50.166Z,119.30
2022-11-25T20:23:00.881Z,115.30
2022-11-25T20:33:06.601Z,149.50
2022-11-25T20:43:22.480Z,157.80
2022-11-25T20:53:30.387Z,137.40
2022-11-25T21:03:36.177Z,135.40
2022-11-25T21:13:42.156Z,186.20
2022-11-25T21:23:49.607Z,128.90
2022-11-25T21:33:59.949Z,122.40
2022-11-25T21:44:07.613Z,129.60
2022-11-25T21:54:13.185Z,116.10
2022-11-25T22:04:20.962Z,151.60
2022-11-25T22:14:34.226Z,151.20
2022-11-25T22:24:40.155Z,147.00
2022-11-25T22:34:46.280Z,139.90
2022-11-25T22:44:52.710Z,144.10
2022-11-25T22:55:01.042Z,103.90
2022-11-25T23:05:16.308Z,98.50
2022-11-25T23:15:24.059Z,103.60
2022-11-25T23:25:29.883Z,123.00
2022-11-25T23:35:39.037Z,126.80
2022-11-25T23:45:50.887Z,129.80
2022-11-25T23:55:56.656Z,117.30
